Time;durP1;ratioP1;P1;durP2;ratioP2;P2;SDS_P1;SDS_P2;PMS_P1;PMS_P2;Temp;Humidity;BMP_temperature;BMP_pressure;BME280_temperature;BME280_humidity;BME280_pressure;Samples;Min_cycle;Max_cycle;Signal;HPM_P1;HPM_P2
2022/11/28 00:01:42;;;;;;;4.90;3.30;;;;;;;6.65;73.17;100766.01;105560;1293;60178;-78
2022/11/28 00:04:09;;;;;;;5.20;3.00;;;;;;;6.62;72.77;100752.74;105517;1295;74579;-79
2022/11/28 00:06:48;;;;;;;5.30;2.90;;;;;;;6.63;73.08;100755.83;105464;1296;71340;-78
2022/11/28 00:09:18;;;;;;;5.10;3.10;;;;;;;6.56;74.16;100768.30;105566;1295;70636;-79
2022/11/28 00:11:47;;;;;;;6.40;3.50;;;;;;;6.52;74.58;100785.52;105515;1293;62603;-79
2022/11/28 00:14:16;;;;;;;6.10;3.90;;;;;;;6.52;74.99;100778.27;105372;1295;60227;-79
2022/11/28 00:16:44;;;;;;;6.70;4.40;;;;;;;6.53;75.17;100766.59;105467;1294;73695;-79
2022/11/28 00:19:12;;;;;;;5.40;3.90;;;;;;;6.54;75.59;100770.02;105636;1293;71596;-79
2022/11/28 00:21:39;;;;;;;5.80;3.80;;;;;;;6.55;75.60;100763.48;105486;1293;72175;-79
2022/11/28 00:24:07;;;;;;;6.70;3.80;;;;;;;6.56;76.03;100759.80;105568;1295;59631;-77
2022/11/28 00:26:36;;;;;;;5.80;4.10;;;;;;;6.58;76.18;100768.29;105589;1294;60132;-79
2022/11/28 00:29:03;;;;;;;6.60;3.70;;;;;;;6.57;76.25;100767.61;105604;1293;74446;-78
2022/11/28 00:31:32;;;;;;;5.40;3.70;;;;;;;6.54;76.55;100760.34;105606;1293;70871;-78
2022/11/28 00:34:02;;;;;;;6.10;3.90;;;;;;;6.51;76.67;100756.20;105577;1294;71119;-78
2022/11/28 00:36:29;;;;;;;6.30;4.20;;;;;;;6.48;77.19;100761.98;105550;1294;59642;-78
2022/11/28 00:38:56;;;;;;;7.50;4.30;;;;;;;6.43;77.74;100753.88;105589;1294;58885;-78
2022/11/28 00:41:25;;;;;;;6.10;4.00;;;;;;;6.37;78.40;100741.42;105531;1295;59385;-78
2022/11/28 00:43:52;;;;;;;7.80;4.70;;;;;;;6.28;79.12;100753.17;105537;1295;69676;-79
2022/11/28 00:46:20;;;;;;;8.60;4.90;;;;;;;6.25;78.99;100772.11;105634;1296;59291;-78
2022/11/28 00:48:47;;;;;;;8.00;4.90;;;;;;;6.24;78.96;100780.92;105586;1295;63883;-78
2022/11/28 00:51:17;;;;;;;6.70;4.70;;;;;;;6.25;78.96;100778.21;105558;1295;59242;-79
2022/11/28 00:53:46;;;;;;;8.60;4.90;;;;;;;6.26;79.32;100773.52;105564;1294;73772;-79
2022/11/28 00:56:15;;;;;;;7.40;4.60;;;;;;;6.26;79.43;100769.65;105547;1295;69852;-78
2022/11/28 00:58:42;;;;;;;7.80;4.60;;;;;;;6.27;79.52;100774.66;105518;1295;72604;-79
2022/11/28 01:01:20;;;;;;;7.30;4.50;;;;;;;6.29;79.29;100756.73;105539;1290;60248;-79
2022/11/28 01:03:49;;;;;;;9.70;4.80;;;;;;;6.31;79.64;100756.77;105538;1288;60146;-78
2022/11/28 01:06:31;;;;;;;6.70;5.00;;;;;;;6.32;79.67;100752.83;105514;1296;73928;-78
2022/11/28 01:09:00;;;;;;;7.40;4.90;;;;;;;6.29;80.10;100733.73;105641;1291;70689;-78
2022/11/28 01:11:27;;;;;;;7.90;5.30;;;;;;;6.22;80.53;100731.23;105502;1294;72741;-78
2022/11/28 01:13:59;;;;;;;6.50;5.00;;;;;;;6.18;80.64;100715.19;105528;1296;62364;-78
2022/11/28 01:16:26;;;;;;;7.50;5.50;;;;;;;6.13;81.12;100702.98;105509;1298;60869;-78
2022/11/28 01:18:53;;;;;;;7.70;5.20;;;;;;;6.08;81.63;100694.16;105551;1295;73801;-79
2022/11/28 01:21:21;;;;;;;8.10;4.60;;;;;;;6.04;81.86;100683.05;105535;1290;70504;-79
2022/11/28 01:23:47;;;;;;;6.90;4.60;;;;;;;5.99;81.96;100676.16;105523;1286;71839;-78
2022/11/28 01:26:17;;;;;;;6.00;4.00;;;;;;;5.95;82.47;100688.35;105552;1293;60014;-78
2022/11/28 01:28:44;;;;;;;7.30;5.20;;;;;;;5.86;82.97;100708.59;105650;1295;58918;-78
2022/11/28 01:31:15;;;;;;;9.10;5.10;;;;;;;5.87;82.77;100698.66;105514;1295;74687;-78
2022/11/28 01:33:42;;;;;;;8.20;5.10;;;;;;;5.92;82.55;100722.16;105472;1295;70641;-78
2022/11/28 01:36:10;;;;;;;6.60;4.30;;;;;;;5.95;82.41;100730.82;105534;1291;71725;-78
2022/11/28 01:38:37;;;;;;;7.10;4.50;;;;;;;5.97;81.98;100726.38;105464;1294;61402;-78
2022/11/28 01:41:04;;;;;;;8.50;4.90;;;;;;;5.98;81.69;100701.23;105565;1292;59334;-78
2022/11/28 01:43:31;;;;;;;9.90;5.20;;;;;;;5.99;81.59;100701.17;105541;1294;74666;-78
2022/11/28 01:45:57;;;;;;;10.60;5.20;;;;;;;6.00;81.82;100702.65;105451;1297;69553;-78
2022/11/28 01:48:37;;;;;;;7.60;4.80;;;;;;;5.99;82.01;100695.10;105564;1289;59032;-78
2022/11/28 01:51:07;;;;;;;9.30;5.30;;;;;;;6.00;82.23;100691.08;105656;1291;59695;-78
2022/11/28 01:53:39;;;;;;;9.60;5.20;;;;;;;5.99;82.12;100684.56;105419;1296;60204;-78
2022/11/28 01:56:16;;;;;;;7.70;5.20;;;;;;;6.00;82.43;100688.88;105552;1293;73811;-78
2022/11/28 01:58:48;;;;;;;10.00;5.50;;;;;;;6.00;82.33;100681.67;105531;1300;70843;-78
2022/11/28 02:01:17;;;;;;;7.90;5.00;;;;;;;6.01;82.34;100659.73;105549;1295;71900;-78
2022/11/28 02:03:47;;;;;;;7.60;5.20;;;;;;;5.99;82.54;100633.31;105532;1295;59569;-78
2022/11/28 02:06:18;;;;;;;10.30;5.40;;;;;;;5.96;82.66;100602.38;105663;1285;60108;-78
2022/11/28 02:08:45;;;;;;;8.50;5.30;;;;;;;5.92;83.41;100595.90;105555;1294;74469;-78
2022/11/28 02:11:27;;;;;;;8.00;5.30;;;;;;;5.85;83.77;100616.73;105539;1291;69544;-78
2022/11/28 02:13:53;;;;;;;9.30;5.10;;;;;;;5.75;84.51;100631.96;105504;1297;71439;-78
2022/11/28 02:16:49;;;;;;;9.20;5.00;;;;;;;5.68;84.63;100643.08;105551;1294;59036;-78
2022/11/28 02:19:40;;;;;;;11.10;6.00;;;;;;;5.66;84.46;100642.06;105552;1293;61447;-78
2022/11/28 02:22:10;;;;;;;9.40;6.00;;;;;;;5.70;84.12;100638.34;105566;1293;73320;-78
2022/11/28 02:25:08;;;;;;;9.20;5.20;;;;;;;5.73;84.03;100636.32;105594;1300;70169;-78
2022/11/28 02:27:40;;;;;;;10.10;5.70;;;;;;;5.76;83.90;100629.73;105602;1293;72431;-78
2022/11/28 02:30:28;;;;;;;6.80;5.00;;;;;;;5.77;83.43;100626.71;105578;1295;61161;-77
2022/11/28 02:33:06;;;;;;;8.30;5.50;;;;;;;5.78;82.75;100612.86;105615;1301;59072;-78
2022/11/28 02:35:42;;;;;;;7.80;4.70;;;;;;;5.80;82.63;100593.02;105537;1293;73124;-78
2022/11/28 02:38:15;;;;;;;7.10;4.40;;;;;;;5.82;81.66;100572.46;105534;1294;69793;-78
2022/11/28 02:40:48;;;;;;;6.40;4.40;;;;;;;5.88;81.45;100573.48;105680;1295;71123;-78
2022/11/28 02:43:40;;;;;;;7.50;5.00;;;;;;;5.91;81.57;100570.90;105560;1296;59788;-78
2022/11/28 02:46:13;;;;;;;5.90;3.80;;;;;;;5.92;81.83;100583.45;105592;1286;59100;-78
2022/11/28 02:49:00;;;;;;;6.90;4.70;;;;;;;5.84;81.99;100593.70;105552;1293;72475;-78
2022/11/28 02:51:37;;;;;;;8.10;4.90;;;;;;;5.80;82.39;100591.60;105565;1295;69813;-78
2022/11/28 02:54:08;;;;;;;7.60;5.40;;;;;;;5.77;82.55;100615.80;105644;1291;72682;-78
2022/11/28 02:56:34;;;;;;;8.30;4.80;;;;;;;5.80;82.19;100624.66;105461;1297;61176;-78
2022/11/28 02:59:01;;;;;;;6.30;4.10;;;;;;;5.82;81.63;100623.92;105554;1295;58940;-78
2022/11/28 03:01:37;;;;;;;6.80;4.10;;;;;;;5.83;81.19;100617.33;105650;1294;73133;-78
2022/11/28 03:04:33;;;;;;;6.60;3.90;;;;;;;5.86;80.66;100617.53;105664;1290;70061;-78
2022/11/28 03:07:12;;;;;;;5.60;3.60;;;;;;;5.89;79.52;100607.23;105725;1287;71774;-78
2022/11/28 03:09:54;;;;;;;4.40;3.10;;;;;;;5.95;78.10;100602.31;105710;1297;61280;-78
2022/11/28 03:12:36;;;;;;;6.30;3.60;;;;;;;6.00;77.92;100592.02;105615;1293;59286;-78
2022/11/28 03:15:10;;;;;;;8.30;4.10;;;;;;;6.03;78.41;100601.34;105672;1285;75757;-78
2022/11/28 03:18:04;;;;;;;6.50;4.50;;;;;;;6.04;79.25;100597.58;105669;1293;71663;-78
2022/11/28 03:20:44;;;;;;;7.60;4.60;;;;;;;6.02;79.72;100585.27;105709;1295;72198;-78
2022/11/28 03:23:16;;;;;;;6.50;4.20;;;;;;;6.01;80.09;100584.33;105618;1293;60828;-78
2022/11/28 03:26:03;;;;;;;6.20;4.00;;;;;;;5.99;80.27;100588.94;105626;1295;59008;-78
2022/11/28 03:28:43;;;;;;;7.90;4.80;;;;;;;5.99;80.06;100587.72;105643;1294;73492;-78
2022/11/28 03:31:14;;;;;;;7.10;4.40;;;;;;;5.99;80.08;100586.17;105642;1293;69615;-78
2022/11/28 03:33:48;;;;;;;6.60;4.20;;;;;;;5.98;80.15;100571.30;105621;1295;71401;-78
2022/11/28 03:36:19;;;;;;;7.10;4.30;;;;;;;5.97;80.15;100571.61;105482;1300;61687;-78
2022/11/28 03:38:49;;;;;;;7.00;3.90;;;;;;;5.94;80.39;100573.98;105556;1293;59387;-78
2022/11/28 03:41:23;;;;;;;6.20;3.70;;;;;;;5.91;80.06;100578.10;105468;1287;74142;-78
2022/11/28 03:43:55;;;;;;;5.30;3.90;;;;;;;5.90;80.01;100576.09;105650;1287;69497;-78
2022/11/28 03:46:30;;;;;;;5.70;4.10;;;;;;;5.89;79.78;100571.07;105605;1287;72875;-78
2022/11/28 03:48:59;;;;;;;5.60;3.60;;;;;;;5.89;79.82;100575.67;105548;1287;58942;-78
2022/11/28 03:51:41;;;;;;;6.60;4.00;;;;;;;5.88;79.80;100578.05;105578;1294;59258;-78
2022/11/28 03:54:52;;;;;;;5.30;3.50;;;;;;;5.89;79.32;100580.61;105513;1294;73126;-78
2022/11/28 03:57:32;;;;;;;5.40;3.50;;;;;;;5.89;79.16;100576.34;105513;1294;69046;-78
2022/11/28 04:00:03;;;;;;;5.10;3.40;;;;;;;5.92;79.29;100572.79;105551;1294;71362;-78
2022/11/28 04:02:51;;;;;;;5.40;3.70;;;;;;;5.93;79.04;100568.22;105530;1294;61125;-78
2022/11/28 04:05:56;;;;;;;5.10;3.40;;;;;;;5.96;78.97;100563.41;105606;1288;58834;-79
2022/11/28 04:08:44;;;;;;;6.00;3.90;;;;;;;6.00;78.78;100563.73;105369;1297;72122;-79
2022/11/28 04:11:19;;;;;;;5.50;3.90;;;;;;;6.04;78.84;100564.02;105328;1290;70877;-79
2022/11/28 04:13:56;;;;;;;5.10;3.70;;;;;;;6.08;78.94;100560.31;105443;1291;73541;-79
2022/11/28 04:16:39;;;;;;;5.30;3.20;;;;;;;6.08;78.62;100554.68;105575;1287;59296;-78
2022/11/28 04:19:12;;;;;;;5.90;3.20;;;;;;;6.03;78.21;100552.05;105677;1285;60153;-78
2022/11/28 04:22:02;;;;;;;5.20;3.00;;;;;;;5.99;78.39;100554.05;105626;1294;74483;-78
2022/11/28 04:24:35;;;;;;;5.10;3.40;;;;;;;5.95;78.56;100554.54;105559;1287;70908;-78
2022/11/28 04:27:09;;;;;;;5.40;3.40;;;;;;;5.91;78.36;100550.52;105568;1294;70528;-78
2022/11/28 04:29:40;;;;;;;6.90;3.80;;;;;;;5.90;78.35;100552.62;105376;1296;60699;-78
2022/11/28 04:32:10;;;;;;;5.30;3.40;;;;;;;5.88;78.51;100552.27;105567;1295;59194;-78
2022/11/28 04:34:39;;;;;;;4.80;3.00;;;;;;;5.84;78.50;100551.57;105569;1287;74456;-78
2022/11/28 04:37:08;;;;;;;6.40;3.20;;;;;;;5.79;78.65;100550.34;105588;1298;69938;-78
2022/11/28 04:39:37;;;;;;;5.90;3.50;;;;;;;5.72;78.75;100545.67;105460;1295;71709;-78
2022/11/28 04:42:15;;;;;;;6.00;3.20;;;;;;;5.67;78.91;100542.63;105651;1293;59251;-78
2022/11/28 04:44:54;;;;;;;4.60;3.10;;;;;;;5.64;79.02;100538.24;105485;1294;60620;-78
2022/11/28 04:47:21;;;;;;;5.60;3.30;;;;;;;5.60;79.30;100535.80;105611;1285;73502;-78
2022/11/28 04:49:48;;;;;;;6.10;3.60;;;;;;;5.57;79.20;100528.88;105524;1294;71646;-78
2022/11/28 04:52:34;;;;;;;5.20;3.60;;;;;;;5.54;79.20;100528.61;105628;1290;72853;-78
2022/11/28 04:55:14;;;;;;;4.50;3.30;;;;;;;5.53;79.47;100523.44;105506;1298;60674;-78
2022/11/28 04:57:48;;;;;;;5.80;3.80;;;;;;;5.50;79.40;100514.76;105562;1290;60093;-78
2022/11/28 05:00:22;;;;;;;6.10;3.70;;;;;;;5.49;79.55;100513.83;105587;1287;74495;-78
2022/11/28 05:02:52;;;;;;;5.30;3.80;;;;;;;5.47;79.52;100517.88;105701;1285;58928;-78
2022/11/28 05:05:22;;;;;;;5.40;3.70;;;;;;;5.44;79.72;100522.75;105577;1285;71975;-78
2022/11/28 05:07:49;;;;;;;6.10;4.00;;;;;;;5.42;79.73;100522.94;105589;1286;60009;-78
2022/11/28 05:10:16;;;;;;;5.70;3.90;;;;;;;5.41;79.81;100524.31;105544;1294;61604;-78
2022/11/28 05:12:42;;;;;;;5.30;3.60;;;;;;;5.38;80.08;100525.50;105529;1293;74173;-78
2022/11/28 05:15:10;;;;;;;6.10;3.80;;;;;;;5.31;80.28;100521.50;105588;1288;59440;-78
2022/11/28 05:17:37;;;;;;;6.10;4.20;;;;;;;5.25;80.49;100523.42;105529;1288;73042;-78
2022/11/28 05:20:08;;;;;;;7.10;4.20;;;;;;;5.23;80.66;100522.11;105499;1288;59815;-78
2022/11/28 05:22:34;;;;;;;6.30;4.00;;;;;;;5.19;80.93;100515.94;105587;1293;59676;-79
2022/11/28 05:25:01;;;;;;;5.80;3.80;;;;;;;5.15;81.05;100508.98;105582;1293;74755;-79
2022/11/28 05:27:28;;;;;;;6.60;4.40;;;;;;;5.11;81.30;100510.25;105604;1294;58909;-78
2022/11/28 05:29:54;;;;;;;6.00;3.60;;;;;;;5.10;81.21;100511.40;105647;1294;72712;-78
2022/11/28 05:32:21;;;;;;;6.80;4.20;;;;;;;5.08;81.48;100513.50;105559;1294;59122;-78
2022/11/28 05:34:47;;;;;;;6.80;3.90;;;;;;;5.08;81.53;100515.98;105618;1298;59561;-79
2022/11/28 05:37:14;;;;;;;5.60;3.80;;;;;;;5.09;81.36;100517.92;105552;1294;59088;-78
2022/11/28 05:39:41;;;;;;;6.00;4.30;;;;;;;5.11;81.43;100522.48;105567;1287;70520;-78
2022/11/28 05:42:08;;;;;;;6.30;4.40;;;;;;;5.14;81.21;100524.22;105511;1294;71223;-77
2022/11/28 05:44:36;;;;;;;7.60;4.60;;;;;;;5.14;81.30;100526.92;105565;1293;58887;-77
2022/11/28 05:47:02;;;;;;;6.40;4.30;;;;;;;5.14;81.38;100527.48;105424;1285;60304;-78
2022/11/28 05:49:28;;;;;;;5.80;4.00;;;;;;;5.14;81.49;100525.05;105466;1282;58927;-78
2022/11/28 05:51:55;;;;;;;7.70;4.20;;;;;;;5.14;81.36;100522.61;105556;1290;59132;-78
2022/11/28 05:54:21;;;;;;;6.30;4.30;;;;;;;5.14;81.37;100525.38;105549;1294;59302;-78
2022/11/28 05:56:48;;;;;;;6.10;4.20;;;;;;;5.14;81.48;100520.11;105623;1286;59041;-78
2022/11/28 05:59:14;;;;;;;6.60;4.20;;;;;;;5.10;82.06;100518.57;105432;1294;59499;-78
2022/11/28 06:01:41;;;;;;;8.50;4.70;;;;;;;5.06;82.38;100516.67;105546;1293;59167;-78
2022/11/28 06:04:07;;;;;;;8.00;5.10;;;;;;;5.05;82.84;100512.08;105551;1293;59351;-78
2022/11/28 06:06:34;;;;;;;6.60;4.10;;;;;;;5.04;82.64;100505.65;105552;1294;58963;-78
2022/11/28 06:09:03;;;;;;;7.70;4.50;;;;;;;5.03;82.58;100501.54;105481;1288;59633;-78
2022/11/28 06:11:30;;;;;;;8.20;4.50;;;;;;;5.00;82.91;100498.98;105528;1287;60178;-78
2022/11/28 06:13:57;;;;;;;7.10;4.70;;;;;;;4.98;83.04;100502.16;105628;1294;74149;-78
2022/11/28 06:16:25;;;;;;;7.70;4.50;;;;;;;4.97;83.74;100504.41;105497;1297;59587;-78
2022/11/28 06:18:56;;;;;;;7.70;4.90;;;;;;;4.94;83.63;100509.92;105530;1287;71441;-78
2022/11/28 06:21:24;;;;;;;7.70;5.00;;;;;;;4.88;83.83;100510.40;105569;1294;59483;-78
2022/11/28 06:23:50;;;;;;;8.10;5.10;;;;;;;4.87;83.70;100506.31;105552;1283;59111;-78
2022/11/28 06:26:20;;;;;;;7.10;4.90;;;;;;;4.85;83.71;100508.48;105485;1288;73155;-78
2022/11/28 06:28:47;;;;;;;7.40;4.80;;;;;;;4.83;84.08;100504.44;105406;1281;68796;-78
2022/11/28 06:31:29;;;;;;;8.00;5.50;;;;;;;4.83;83.98;100506.15;105394;1293;237228;-78
2022/11/28 06:33:57;;;;;;;8.30;5.50;;;;;;;4.83;83.81;100500.21;105554;1294;59055;-75
2022/11/28 06:36:25;;;;;;;8.30;5.00;;;;;;;4.84;83.93;100500.15;105558;1294;59311;-74
2022/11/28 06:38:52;;;;;;;9.70;5.60;;;;;;;4.84;84.15;100499.65;105573;1287;74822;-74
2022/11/28 06:41:19;;;;;;;8.80;5.20;;;;;;;4.83;84.06;100495.52;105567;1287;70904;-74
2022/11/28 06:43:46;;;;;;;9.90;5.50;;;;;;;4.82;84.04;100500.13;105563;1293;70181;-74
2022/11/28 06:46:18;;;;;;;8.70;5.20;;;;;;;4.80;84.23;100501.91;105591;1293;58960;-74
2022/11/28 06:48:46;;;;;;;7.80;5.20;;;;;;;4.79;84.10;100502.52;105477;1293;60134;-74
2022/11/28 06:51:14;;;;;;;7.20;5.20;;;;;;;4.78;84.09;100508.27;105580;1290;74635;-74
2022/11/28 06:53:40;;;;;;;7.50;5.60;;;;;;;4.76;84.33;100507.39;105537;1287;69554;-75
2022/11/28 06:56:10;;;;;;;8.80;5.70;;;;;;;4.74;84.35;100510.36;105555;1288;71615;-76
2022/11/28 06:58:36;;;;;;;8.20;5.40;;;;;;;4.72;84.25;100521.05;105506;1295;59658;-75
2022/11/28 07:01:07;;;;;;;8.80;5.90;;;;;;;4.70;84.30;100526.19;105452;1294;60295;-75
2022/11/28 07:03:33;;;;;;;8.30;5.70;;;;;;;4.68;84.54;100530.69;105613;1290;73613;-75
2022/11/28 07:06:02;;;;;;;8.30;5.80;;;;;;;4.67;84.52;100530.13;105553;1294;58974;-75
2022/11/28 07:08:29;;;;;;;10.20;5.50;;;;;;;4.68;84.63;100534.88;105532;1294;71100;-75
2022/11/28 07:10:56;;;;;;;7.20;5.10;;;;;;;4.68;84.61;100533.16;105352;1289;60093;-75
2022/11/28 07:13:23;;;;;;;8.90;5.50;;;;;;;4.70;84.61;100539.43;105493;1286;59105;-75
2022/11/28 07:15:50;;;;;;;8.00;5.40;;;;;;;4.74;84.62;100542.09;105596;1287;72875;-75
2022/11/28 07:18:17;;;;;;;10.40;5.70;;;;;;;4.77;84.33;100543.02;105562;1288;70287;-75
2022/11/28 07:20:43;;;;;;;8.80;5.50;;;;;;;4.81;84.23;100541.93;105598;1287;59320;-75
2022/11/28 07:23:10;;;;;;;8.70;5.80;;;;;;;4.84;84.11;100540.59;105573;1287;59342;-75
2022/11/28 07:25:36;;;;;;;8.50;5.70;;;;;;;4.89;83.87;100546.31;105602;1294;59120;-75
2022/11/28 07:28:03;;;;;;;7.10;5.30;;;;;;;4.92;83.70;100546.86;105569;1294;59347;-75
2022/11/28 07:30:29;;;;;;;8.60;5.70;;;;;;;4.95;83.68;100545.91;105648;1287;58893;-75
2022/11/28 07:32:55;;;;;;;8.30;5.10;;;;;;;4.98;83.51;100548.45;105621;1294;58915;-75
2022/11/28 07:35:22;;;;;;;10.00;5.80;;;;;;;5.02;83.57;100540.34;105547;1293;59155;-75
2022/11/28 07:37:48;;;;;;;8.90;5.70;;;;;;;5.05;83.35;100539.53;105638;1286;58757;-75
2022/11/28 07:40:17;;;;;;;9.70;5.50;;;;;;;5.07;83.20;100539.36;105566;1293;59065;-75
2022/11/28 07:42:43;;;;;;;7.10;4.90;;;;;;;5.10;83.21;100538.90;105602;1294;68654;-75
2022/11/28 07:45:10;;;;;;;9.50;5.40;;;;;;;5.15;83.13;100539.36;105535;1287;71298;-75
2022/11/28 07:47:37;;;;;;;8.90;5.20;;;;;;;5.19;82.96;100542.33;105523;1284;59982;-75
2022/11/28 07:50:04;;;;;;;9.90;4.90;;;;;;;5.22;82.71;100542.52;105561;1287;59673;-75
2022/11/28 07:52:30;;;;;;;8.70;5.10;;;;;;;5.24;82.58;100542.19;105607;1294;74249;-75
2022/11/28 07:54:57;;;;;;;7.40;4.50;;;;;;;5.26;82.50;100541.13;105540;1287;58929;-75
2022/11/28 07:57:23;;;;;;;7.60;4.60;;;;;;;5.28;81.95;100547.23;105576;1294;60373;-75
2022/11/28 07:59:50;;;;;;;6.30;4.20;;;;;;;5.31;81.44;100550.42;105587;1293;58868;-75
2022/11/28 08:02:16;;;;;;;6.50;4.30;;;;;;;5.38;81.59;100557.71;105596;1287;58947;-75
2022/11/28 08:04:42;;;;;;;7.10;4.20;;;;;;;5.43;81.09;100557.05;105612;1294;58979;-75
2022/11/28 08:07:15;;;;;;;5.80;4.00;;;;;;;5.45;80.35;100553.86;105516;1295;70205;-73
2022/11/28 08:09:42;;;;;;;7.30;4.50;;;;;;;5.47;79.82;100550.14;105629;1295;59014;-73
2022/11/28 08:12:09;;;;;;;6.60;4.20;;;;;;;5.52;79.94;100550.27;105522;1293;59360;-73
2022/11/28 08:14:35;;;;;;;6.50;4.10;;;;;;;5.57;79.86;100547.31;105549;1287;59344;-73
2022/11/28 08:17:02;;;;;;;7.20;4.50;;;;;;;5.62;79.74;100540.46;105533;1287;59232;-73
2022/11/28 08:19:28;;;;;;;7.20;4.40;;;;;;;5.69;79.82;100539.42;105620;1294;58946;-73
2022/11/28 08:22:00;;;;;;;6.60;4.50;;;;;;;5.75;79.33;100538.95;105587;1288;72639;-73
2022/11/28 08:24:26;;;;;;;7.30;4.50;;;;;;;5.78;79.13;100536.91;105528;1294;59258;-73
2022/11/28 08:26:53;;;;;;;6.90;4.60;;;;;;;5.80;79.27;100531.04;105605;1294;58881;-73
2022/11/28 08:29:19;;;;;;;8.00;4.60;;;;;;;5.83;79.54;100534.64;105579;1294;59023;-73
2022/11/28 08:31:46;;;;;;;7.10;4.60;;;;;;;5.84;79.60;100531.55;105516;1293;58912;-73
2022/11/28 08:34:13;;;;;;;6.80;4.60;;;;;;;5.84;79.60;100536.48;105535;1287;59397;-73
2022/11/28 08:36:40;;;;;;;6.10;4.40;;;;;;;5.86;80.11;100538.77;105578;1287;59713;-73
2022/11/28 08:39:06;;;;;;;7.10;4.70;;;;;;;5.86;80.18;100540.33;105569;1286;58964;-73
2022/11/28 08:41:51;;;;;;;10.90;6.50;;;;;;;5.84;79.98;100545.09;105469;1286;74505;-73
2022/11/28 08:44:17;;;;;;;10.10;7.10;;;;;;;5.83;79.74;100543.92;105615;1293;69685;-73
2022/11/28 08:46:44;;;;;;;10.80;6.80;;;;;;;5.85;80.07;100542.81;105605;1294;59351;-73
2022/11/28 08:49:10;;;;;;;10.00;5.80;;;;;;;5.90;80.06;100543.30;105520;1295;59260;-73
2022/11/28 08:51:36;;;;;;;8.50;5.30;;;;;;;5.96;80.29;100543.23;105543;1286;59454;-73
2022/11/28 08:54:03;;;;;;;8.60;5.50;;;;;;;6.03;80.29;100543.48;105595;1278;59447;-73
2022/11/28 08:56:30;;;;;;;7.20;4.70;;;;;;;6.07;80.26;100540.04;105456;1295;59017;-73
2022/11/28 08:58:56;;;;;;;7.20;4.80;;;;;;;6.13;80.24;100541.06;105633;1294;59004;-73
2022/11/28 09:01:24;;;;;;;7.70;5.30;;;;;;;6.19;79.90;100538.77;105598;1294;59418;-73
2022/11/28 09:03:52;;;;;;;6.50;4.80;;;;;;;6.20;79.91;100543.04;105477;1288;58953;-73
2022/11/28 09:06:20;;;;;;;7.10;4.30;;;;;;;6.20;79.87;100549.36;105536;1294;73915;-73
2022/11/28 09:08:48;;;;;;;7.10;4.70;;;;;;;6.19;80.00;100546.14;105625;1294;69841;-73
2022/11/28 09:11:17;;;;;;;6.80;4.90;;;;;;;6.19;80.18;100549.98;105451;1297;70645;-73
2022/11/28 09:13:45;;;;;;;7.80;4.90;;;;;;;6.22;80.36;100550.40;105501;1294;59627;-73
2022/11/28 09:16:13;;;;;;;7.10;5.10;;;;;;;6.25;80.28;100554.13;105449;1294;59516;-73
2022/11/28 09:18:39;;;;;;;6.90;5.00;;;;;;;6.28;80.39;100556.85;105491;1288;74698;-73
2022/11/28 09:21:10;;;;;;;6.70;5.10;;;;;;;6.30;80.27;100555.02;105551;1294;59040;-73
2022/11/28 09:23:39;;;;;;;8.20;5.00;;;;;;;6.33;80.21;100554.20;105648;1291;70163;-74
2022/11/28 09:26:14;;;;;;;6.80;4.60;;;;;;;6.33;80.09;100558.61;105484;1297;59634;-73
2022/11/28 09:28:41;;;;;;;7.60;4.90;;;;;;;6.31;80.10;100558.98;105456;1297;59099;-73
2022/11/28 09:31:08;;;;;;;7.90;5.60;;;;;;;6.31;80.53;100554.92;105580;1289;74914;-73
2022/11/28 09:33:34;;;;;;;8.00;5.40;;;;;;;6.34;80.50;100553.61;105531;1294;70868;-73
2022/11/28 09:36:05;;;;;;;9.20;5.30;;;;;;;6.34;80.60;100556.60;105589;1293;58915;-73
2022/11/28 09:38:32;;;;;;;8.10;5.50;;;;;;;6.33;80.62;100558.08;105575;1294;60443;-73
2022/11/28 09:41:00;;;;;;;8.20;5.30;;;;;;;6.32;80.67;100556.55;105543;1294;60172;-73
2022/11/28 09:43:41;;;;;;;9.10;5.60;;;;;;;6.32;80.80;100554.64;105640;1293;74204;-73
2022/11/28 09:46:14;;;;;;;8.10;5.40;;;;;;;6.32;80.66;100555.70;105535;1296;70066;-73
2022/11/28 09:48:44;;;;;;;8.60;5.50;;;;;;;6.33;80.92;100558.99;105587;1286;71280;-73
2022/11/28 09:51:27;;;;;;;8.10;5.60;;;;;;;6.33;81.07;100557.02;105533;1287;61441;-73
2022/11/28 09:54:12;;;;;;;8.80;5.80;;;;;;;6.35;81.01;100555.62;105539;1277;58961;-73
2022/11/28 09:56:38;;;;;;;7.50;5.20;;;;;;;6.37;80.98;100555.80;105609;1294;74637;-73
2022/11/28 09:59:19;;;;;;;9.40;5.50;;;;;;;6.35;80.74;100554.58;105401;1297;69574;-73
2022/11/28 10:01:55;;;;;;;9.50;6.20;;;;;;;6.35;80.93;100552.68;105576;1294;72413;-73
2022/11/28 10:04:37;;;;;;;8.30;5.80;;;;;;;6.33;80.86;100547.91;105597;1294;58981;-73
2022/11/28 10:07:47;;;;;;;8.50;6.00;;;;;;;6.33;81.01;100548.42;105596;1285;58844;-73
2022/11/28 10:10:51;;;;;;;8.40;5.80;;;;;;;6.35;81.26;100547.52;105584;1287;74777;-73
2022/11/28 10:13:48;;;;;;;9.10;6.10;;;;;;;6.35;81.34;100545.65;105529;1288;69639;-73
2022/11/28 10:16:53;;;;;;;9.90;6.10;;;;;;;6.38;81.10;100547.25;105606;1294;73558;-73
2022/11/28 10:19:32;;;;;;;8.20;5.80;;;;;;;6.40;81.43;100546.98;105611;1286;59013;-73
2022/11/28 10:22:39;;;;;;;9.10;6.00;;;;;;;6.43;81.37;100545.13;105589;1293;59610;-73
2022/11/28 10:25:33;;;;;;;9.70;6.10;;;;;;;6.45;81.33;100540.20;105596;1287;75195;-73
2022/11/28 10:28:03;;;;;;;7.80;5.70;;;;;;;6.48;81.43;100537.44;105512;1298;71016;-75
2022/11/28 10:30:36;;;;;;;9.20;5.50;;;;;;;6.52;81.22;100538.80;105570;1287;72449;-73
2022/11/28 10:33:12;;;;;;;9.90;6.30;;;;;;;6.56;81.32;100539.73;105531;1294;60989;-73
2022/11/28 10:35:55;;;;;;;8.80;5.60;;;;;;;6.60;81.29;100537.88;105591;1294;58921;-73
2022/11/28 10:38:27;;;;;;;9.10;6.00;;;;;;;6.64;81.45;100530.77;105481;1288;73589;-73
2022/11/28 10:41:11;;;;;;;8.30;6.00;;;;;;;6.66;80.92;100530.92;105648;1294;70855;-73
2022/11/28 10:43:56;;;;;;;9.20;6.10;;;;;;;6.69;81.09;100532.16;105616;1287;71242;-73
2022/11/28 10:46:35;;;;;;;7.90;5.70;;;;;;;6.72;81.03;100527.33;105566;1294;61052;-73
2022/11/28 10:49:13;;;;;;;9.40;5.90;;;;;;;6.75;80.63;100528.61;105559;1287;59452;-73
2022/11/28 10:52:13;;;;;;;8.70;6.20;;;;;;;6.77;80.73;100526.88;105533;1294;72970;-73
2022/11/28 10:54:58;;;;;;;8.60;6.60;;;;;;;6.75;80.60;100521.03;105528;1296;69600;-73
2022/11/28 10:57:55;;;;;;;10.00;6.90;;;;;;;6.75;80.81;100521.04;105554;1287;71432;-73
2022/11/28 11:00:21;;;;;;;9.90;6.60;;;;;;;6.77;80.81;100519.16;105520;1294;58997;-73
2022/11/28 11:02:50;;;;;;;10.20;6.30;;;;;;;6.77;80.66;100522.98;105623;1287;58864;-73
2022/11/28 11:05:24;;;;;;;9.00;5.90;;;;;;;6.79;81.21;100525.28;105612;1294;73110;-73
2022/11/28 11:08:07;;;;;;;8.60;6.20;;;;;;;6.80;80.98;100523.01;105558;1288;70392;-73
2022/11/28 11:10:40;;;;;;;9.50;6.10;;;;;;;6.84;81.01;100518.62;105610;1295;71462;-73
2022/11/28 11:13:26;;;;;;;9.60;6.60;;;;;;;6.88;80.87;100519.54;105466;1295;61210;-73
2022/11/28 11:16:06;;;;;;;9.90;6.70;;;;;;;6.91;80.97;100519.58;105470;1295;58872;-73
2022/11/28 11:18:36;;;;;;;10.00;6.60;;;;;;;6.93;80.75;100525.40;105619;1301;73394;-73
2022/11/28 11:21:14;;;;;;;9.50;6.70;;;;;;;6.94;80.69;100521.77;105516;1294;70335;-72
2022/11/28 11:23:41;;;;;;;8.40;6.30;;;;;;;6.97;80.22;100525.25;105605;1294;71911;-72
2022/11/28 11:26:24;;;;;;;9.20;6.30;;;;;;;6.94;79.86;100517.72;105515;1293;59621;-73
2022/11/28 11:28:51;;;;;;;9.60;6.60;;;;;;;6.93;80.03;100517.83;105616;1293;60171;-73
2022/11/28 11:31:25;;;;;;;10.20;6.70;;;;;;;6.94;80.15;100508.63;105527;1293;74431;-73
2022/11/28 11:34:05;;;;;;;8.80;6.20;;;;;;;6.97;80.24;100511.31;105462;1295;68936;-72
2022/11/28 11:36:34;;;;;;;9.60;6.40;;;;;;;7.00;80.34;100509.24;105494;1279;70732;-72
2022/11/28 11:39:18;;;;;;;9.50;6.60;;;;;;;7.03;79.94;100508.41;105553;1294;60098;-72
2022/11/28 11:42:07;;;;;;;9.20;6.40;;;;;;;7.08;80.31;100504.55;105491;1294;60333;-73
2022/11/28 11:44:34;;;;;;;9.10;6.10;;;;;;;7.11;80.15;100509.85;105488;1294;75154;-72
2022/11/28 11:47:04;;;;;;;8.90;6.60;;;;;;;7.16;80.08;100507.30;105588;1293;71269;-73
2022/11/28 11:49:34;;;;;;;11.00;6.30;;;;;;;7.20;79.85;100511.74;105584;1293;71970;-73